createdAt,value
2023-03-06T00:02:16.045Z,98151.77
2023-03-06T00:05:19.162Z,98146.29
2023-03-06T00:08:21.907Z,98145.78
2023-03-06T00:11:24.640Z,98144.05
2023-03-06T00:14:27.325Z,98142.95
2023-03-06T00:17:29.911Z,98140.49
2023-03-06T00:20:33.490Z,98140.48
2023-03-06T00:23:36.494Z,98140.17
2023-03-06T00:26:41.258Z,98140.27
2023-03-06T00:29:45.015Z,98139.11
2023-03-06T00:32:49.117Z,98141.09
2023-03-06T00:35:51.861Z,98144.09
2023-03-06T00:38:54.669Z,98142.97
2023-03-06T00:41:57.360Z,98140.52
2023-03-06T00:45:00.895Z,98144.54
2023-03-06T00:48:03.827Z,98142.31
2023-03-06T00:51:07.310Z,98141.85
2023-03-06T00:54:09.945Z,98138.41
2023-03-06T00:57:12.635Z,98131.77
2023-03-06T01:00:17.749Z,98128.83
2023-03-06T01:03:20.706Z,98129.98
2023-03-06T01:06:26.147Z,98126.66
2023-03-06T01:09:29.395Z,98128.50
2023-03-06T01:12:32.003Z,98127.95
2023-03-06T01:15:34.621Z,98128.39
2023-03-06T01:18:37.443Z,98121.59
2023-03-06T01:21:40.184Z,98121.05
2023-03-06T01:24:42.856Z,98121.80
2023-03-06T01:27:45.464Z,98121.36
2023-03-06T01:30:48.407Z,98119.75
2023-03-06T01:33:51.183Z,98120.95
2023-03-06T01:36:53.815Z,98119.62
2023-03-06T01:39:56.633Z,98118.05
2023-03-06T01:42:59.505Z,98116.20
2023-03-06T01:46:41.951Z,98116.45
2023-03-06T01:49:44.973Z,98117.77
2023-03-06T01:52:56.147Z,98110.98
2023-03-06T01:55:59.116Z,98109.70
2023-03-06T01:59:02.516Z,98113.65
2023-03-06T02:02:06.592Z,98106.86
2023-03-06T02:05:09.602Z,98108.00
2023-03-06T02:08:14.941Z,98104.36
2023-03-06T02:11:20.707Z,98102.59
2023-03-06T02:14:23.858Z,98101.89
2023-03-06T02:17:27.054Z,98103.56
2023-03-06T02:20:48.971Z,98103.68
2023-03-06T02:24:04.218Z,98099.98
2023-03-06T02:27:07.412Z,98102.17
2023-03-06T02:30:12.985Z,98096.61
2023-03-06T02:33:17.572Z,98100.12
2023-03-06T02:36:20.456Z,98100.66
2023-03-06T02:39:25.192Z,98092.19
2023-03-06T02:42:28.946Z,98090.00
2023-03-06T02:45:42.698Z,98084.83
2023-03-06T02:48:45.477Z,98082.58
2023-03-06T02:51:48.162Z,98087.02
2023-03-06T02:54:50.812Z,98078.55
2023-03-06T02:57:53.638Z,98076.71
2023-03-06T03:00:56.684Z,98075.45
2023-03-06T03:03:59.878Z,98074.98
2023-03-06T03:07:03.670Z,98077.95
2023-03-06T03:10:07.435Z,98076.73
2023-03-06T03:13:10.219Z,98077.67
2023-03-06T03:16:15.624Z,98070.73
2023-03-06T03:19:18.657Z,98066.90
2023-03-06T03:22:21.932Z,98069.98
2023-03-06T03:25:26.251Z,98069.98
2023-03-06T03:28:31.156Z,98069.90
2023-03-06T03:31:34.058Z,98064.83
2023-03-06T03:34:38.161Z,98063.81
2023-03-06T03:37:43.535Z,98061.43
2023-03-06T03:40:46.476Z,98060.28
2023-03-06T03:43:49.360Z,98060.67
2023-03-06T03:46:52.016Z,98056.81
2023-03-06T03:49:57.070Z,98058.36
2023-03-06T03:53:00.672Z,98054.68
2023-03-06T03:56:03.878Z,98056.42
2023-03-06T03:59:07.623Z,98057.52
2023-03-06T04:02:17.763Z,98060.36
2023-03-06T04:05:53.941Z,98057.41
2023-03-06T04:08:56.970Z,98053.36
2023-03-06T04:12:00.636Z,98056.57
2023-03-06T04:15:04.796Z,98060.31
2023-03-06T04:18:07.638Z,98058.73
2023-03-06T04:21:10.344Z,98053.20
2023-03-06T04:24:13.649Z,98053.29
2023-03-06T04:27:16.864Z,98051.23
2023-03-06T04:30:22.576Z,98049.38
2023-03-06T04:33:25.340Z,98047.61
2023-03-06T04:36:30.478Z,98043.93
2023-03-06T04:39:36.008Z,98036.79
2023-03-06T04:42:38.693Z,98033.05
2023-03-06T04:45:41.599Z,98033.21
2023-03-06T04:48:44.568Z,98029.83
2023-03-06T04:51:47.235Z,98029.08
2023-03-06T04:54:49.911Z,98021.34
2023-03-06T04:57:52.595Z,98019.85
2023-03-06T05:00:55.310Z,98023.91
2023-03-06T05:03:58.041Z,98021.42
2023-03-06T05:07:00.752Z,98020.70
2023-03-06T05:10:03.683Z,98020.23
2023-03-06T05:13:06.466Z,98020.75
2023-03-06T05:16:09.262Z,98023.23
2023-03-06T05:19:11.900Z,98025.64
2023-03-06T05:22:14.495Z,98022.09
2023-03-06T05:25:17.242Z,98018.63
2023-03-06T05:28:19.996Z,98018.55
2023-03-06T05:31:23.146Z,98016.52
2023-03-06T05:34:26.085Z,98011.30
2023-03-06T05:37:28.764Z,98014.55
2023-03-06T05:40:31.945Z,98013.02
2023-03-06T05:43:34.586Z,98019.44
2023-03-06T05:46:38.569Z,98018.05
2023-03-06T05:49:41.503Z,98019.01
2023-03-06T05:52:44.181Z,98017.64
2023-03-06T05:55:55.029Z,98018.95
2023-03-06T05:58:57.803Z,98015.05
2023-03-06T06:02:01.385Z,98011.39
2023-03-06T06:05:04.509Z,98009.72
2023-03-06T06:08:07.178Z,98007.38
2023-03-06T06:11:10.434Z,98008.81
2023-03-06T06:14:13.210Z,98001.77
2023-03-06T06:17:16.904Z,98002.43
2023-03-06T06:20:19.680Z,98006.29
2023-03-06T06:23:22.341Z,98005.48
2023-03-06T06:26:24.988Z,98001.45
2023-03-06T06:29:28.350Z,97999.84
2023-03-06T06:32:31.106Z,97996.02
2023-03-06T06:35:35.740Z,97991.23
2023-03-06T06:38:38.473Z,97991.95
2023-03-06T06:41:57.535Z,97990.17
2023-03-06T06:45:03.064Z,97988.35
2023-03-06T06:48:05.989Z,97982.06
2023-03-06T06:51:08.676Z,97983.83
2023-03-06T06:54:14.250Z,97981.60
2023-03-06T06:57:16.918Z,97984.06
2023-03-06T07:00:19.996Z,97982.85
2023-03-06T07:03:22.984Z,97984.67
2023-03-06T07:06:25.765Z,97986.59
2023-03-06T07:09:30.938Z,97978.05
2023-03-06T07:12:35.346Z,97977.64
2023-03-06T07:15:38.236Z,97973.83
2023-03-06T07:18:40.960Z,97971.73
2023-03-06T07:21:43.580Z,97968.36
2023-03-06T07:24:46.309Z,97962.27
2023-03-06T07:27:54.270Z,97964.39
2023-03-06T07:30:57.456Z,97964.33
2023-03-06T07:34:01.921Z,97964.48
2023-03-06T07:37:05.805Z,97964.20
2023-03-06T07:40:10.096Z,97957.34
2023-03-06T07:43:19.039Z,97952.98
2023-03-06T07:46:31.059Z,97953.39
2023-03-06T07:49:34.409Z,97948.64
2023-03-06T07:52:37.098Z,97952.12
2023-03-06T07:55:41.415Z,97945.91
2023-03-06T07:58:44.858Z,97942.46
2023-03-06T08:01:47.622Z,97945.38
2023-03-06T08:04:54.533Z,97940.01
2023-03-06T08:07:57.593Z,97940.38
2023-03-06T08:11:00.385Z,97936.35
2023-03-06T08:14:03.074Z,97936.38
2023-03-06T08:17:05.820Z,97932.26
2023-03-06T08:20:10.470Z,97937.50
2023-03-06T08:23:13.406Z,97928.69
2023-03-06T08:26:17.763Z,97927.33
2023-03-06T08:29:20.490Z,97932.80
2023-03-06T08:32:23.146Z,97923.48
2023-03-06T08:35:25.895Z,97919.45
2023-03-06T08:38:28.741Z,97916.54
2023-03-06T08:41:31.910Z,97919.66
2023-03-06T08:44:34.731Z,97918.98
2023-03-06T08:47:37.578Z,97919.20
2023-03-06T08:50:41.061Z,97918.20
2023-03-06T08:53:44.462Z,97920.66
2023-03-06T08:56:47.843Z,97918.25
2023-03-06T08:59:50.574Z,97913.39
2023-03-06T09:02:53.366Z,97916.91
2023-03-06T09:05:55.962Z,97911.41
2023-03-06T09:08:59.276Z,97911.70
2023-03-06T09:12:01.934Z,97909.39
2023-03-06T09:15:07.815Z,97910.17
2023-03-06T09:18:10.483Z,97907.48
2023-03-06T09:21:13.175Z,97899.88
2023-03-06T09:24:15.866Z,97904.14
2023-03-06T09:27:18.545Z,97903.11
2023-03-06T09:30:21.356Z,97900.91
2023-03-06T09:33:24.306Z,97896.86
2023-03-06T09:36:27.003Z,97892.41
2023-03-06T09:39:29.714Z,97894.98
2023-03-06T09:42:34.381Z,97895.42
2023-03-06T09:45:37.941Z,97890.55
2023-03-06T09:48:50.077Z,97890.50
2023-03-06T09:52:03.945Z,97886.59
2023-03-06T09:55:15.595Z,97883.95
2023-03-06T09:58:22.091Z,97883.16
2023-03-06T10:01:27.877Z,97879.89
2023-03-06T10:04:39.800Z,97873.02
2023-03-06T10:07:45.402Z,97868.40
2023-03-06T10:10:57.386Z,97868.59
2023-03-06T10:14:22.663Z,97862.29
2023-03-06T10:17:26.595Z,97861.47
2023-03-06T10:21:18.673Z,97854.65
2023-03-06T10:24:33.748Z,97848.67
2023-03-06T10:27:55.308Z,97848.66
2023-03-06T10:31:19.885Z,97843.13
2023-03-06T10:34:24.246Z,97834.06
2023-03-06T10:37:31.570Z,97833.80
2023-03-06T10:40:41.555Z,97840.50
2023-03-06T10:43:45.511Z,97838.03
2023-03-06T10:46:50.384Z,97829.99
2023-03-06T10:50:00.739Z,97833.80
2023-03-06T10:53:15.584Z,97831.46
2023-03-06T10:56:34.964Z,97825.63
2023-03-06T10:59:50.015Z,97823.70
2023-03-06T11:03:05.586Z,97814.80
2023-03-06T11:06:14.174Z,97820.13
2023-03-06T11:09:24.655Z,97818.79
2023-03-06T11:12:34.902Z,97816.07
2023-03-06T11:15:37.671Z,97812.00
2023-03-06T11:18:41.386Z,97808.95
2023-03-06T11:21:58.416Z,97811.62
2023-03-06T11:25:01.476Z,97806.46
2023-03-06T11:28:13.411Z,97803.52
2023-03-06T11:31:17.468Z,97806.08
2023-03-06T11:34:38.822Z,97808.27
2023-03-06T11:38:05.026Z,97808.43
2023-03-06T11:41:34.114Z,97803.20
2023-03-06T11:44:55.346Z,97805.73
2023-03-06T11:48:00.745Z,97801.62
2023-03-06T11:51:15.190Z,97800.60
2023-03-06T11:54:17.969Z,97803.79
2023-03-06T11:57:23.174Z,97805.16
2023-03-06T12:00:47.980Z,97805.08
2023-03-06T12:03:59.237Z,97801.80
2023-03-06T12:07:01.892Z,97802.23
2023-03-06T12:10:19.044Z,97797.92
2023-03-06T12:16:46.542Z,97805.30
2023-03-06T12:19:52.527Z,97806.63
2023-03-06T12:23:15.106Z,97804.41
2023-03-06T12:26:38.470Z,97803.96
2023-03-06T12:29:53.480Z,97799.44
2023-03-06T12:33:14.959Z,97795.92
2023-03-06T12:36:25.025Z,97796.99
2023-03-06T12:39:30.646Z,97800.77
2023-03-06T12:42:36.352Z,97799.80
2023-03-06T12:45:39.660Z,97798.89
2023-03-06T12:48:43.746Z,97794.61
2023-03-06T12:51:47.275Z,97796.88
2023-03-06T12:54:50.551Z,97793.18
2023-03-06T12:57:53.985Z,97793.32
2023-03-06T13:01:03.702Z,97796.52
2023-03-06T13:04:18.984Z,97795.10
2023-03-06T13:07:30.841Z,97787.69
2023-03-06T13:10:35.118Z,97791.15
2023-03-06T13:13:46.106Z,97794.13
2023-03-06T13:16:48.778Z,97790.39
2023-03-06T13:20:11.714Z,97790.66
2023-03-06T13:23:32.905Z,97787.70
2023-03-06T13:26:35.672Z,97786.48
2023-03-06T13:29:38.476Z,97789.29
2023-03-06T13:32:41.185Z,97789.02
2023-03-06T13:35:51.045Z,97784.67
2023-03-06T13:39:01.212Z,97787.30
2023-03-06T13:42:07.176Z,97788.38
2023-03-06T13:45:17.797Z,97792.61
2023-03-06T13:48:43.618Z,97795.03
2023-03-06T13:51:52.748Z,97792.81
2023-03-06T13:55:07.449Z,97794.25
2023-03-06T13:58:28.450Z,97791.04
2023-03-06T14:01:50.021Z,97785.65
2023-03-06T14:04:59.889Z,97784.05
2023-03-06T14:08:07.844Z,97778.80
2023-03-06T14:11:24.050Z,97777.36
2023-03-06T14:14:38.076Z,97775.79
2023-03-06T14:17:47.950Z,97774.38
2023-03-06T14:20:56.609Z,97774.80
2023-03-06T14:24:00.938Z,97770.98
2023-03-06T14:27:04.073Z,97767.45
2023-03-06T14:30:07.986Z,97766.66
2023-03-06T14:33:11.305Z,97765.81
2023-03-06T14:36:15.312Z,97758.66
2023-03-06T14:39:21.537Z,97760.73
2023-03-06T14:42:28.618Z,97757.97
2023-03-06T14:45:31.351Z,97757.61
2023-03-06T14:48:39.370Z,97750.92
2023-03-06T14:51:46.033Z,97748.27
2023-03-06T14:54:49.198Z,97748.26
2023-03-06T14:57:55.163Z,97746.13
2023-03-06T15:01:01.365Z,97746.48
2023-03-06T15:04:27.104Z,97746.73
2023-03-06T15:07:34.161Z,97746.77
2023-03-06T15:10:37.318Z,97746.67
2023-03-06T15:13:40.150Z,97747.99
2023-03-06T15:16:42.854Z,97746.86
2023-03-06T15:19:46.851Z,97750.17
2023-03-06T15:22:50.417Z,97755.11
2023-03-06T15:25:57.703Z,97756.05
2023-03-06T15:29:10.361Z,97751.42
2023-03-06T15:32:14.943Z,97747.80
2023-03-06T15:35:32.048Z,97748.80
2023-03-06T15:38:38.513Z,97750.71
2023-03-06T15:41:42.100Z,97755.69
2023-03-06T15:44:49.551Z,97752.63
2023-03-06T15:47:53.228Z,97759.21
2023-03-06T15:50:55.877Z,97764.19
2023-03-06T15:54:09.788Z,97758.45
2023-03-06T15:57:25.251Z,97763.77
2023-03-06T16:00:29.982Z,97761.49
2023-03-06T16:03:32.790Z,97761.63
2023-03-06T16:06:35.510Z,97766.39
2023-03-06T16:09:38.217Z,97769.67
2023-03-06T16:12:43.610Z,97777.77
2023-03-06T16:15:47.991Z,97779.34
2023-03-06T16:18:50.650Z,97781.50
2023-03-06T16:21:53.561Z,97779.69
2023-03-06T16:24:56.276Z,97779.48
2023-03-06T16:27:59.699Z,97774.79
2023-03-06T16:31:02.712Z,97774.40
2023-03-06T16:34:05.693Z,97776.36
2023-03-06T16:37:11.230Z,97776.54
2023-03-06T16:40:22.200Z,97778.55
2023-03-06T16:43:24.815Z,97778.84
2023-03-06T16:46:27.797Z,97775.58
2023-03-06T16:49:39.401Z,97777.45
2023-03-06T16:52:42.146Z,97777.52
2023-03-06T16:55:45.228Z,97776.12
2023-03-06T16:58:48.576Z,97777.91
2023-03-06T17:01:51.187Z,97773.02
2023-03-06T17:04:53.930Z,97769.64
2023-03-06T17:07:56.613Z,97775.64
2023-03-06T17:10:59.281Z,97773.02
2023-03-06T17:14:01.931Z,97773.16
2023-03-06T17:17:05.149Z,97775.23
2023-03-06T17:20:08.637Z,97770.43
2023-03-06T17:23:11.396Z,97770.06
2023-03-06T17:26:16.014Z,97769.90
2023-03-06T17:29:18.792Z,97773.61
2023-03-06T17:32:21.544Z,97775.61
2023-03-06T17:35:24.371Z,97771.21
2023-03-06T17:38:27.944Z,97776.66
2023-03-06T17:41:32.994Z,97773.37
2023-03-06T17:44:36.155Z,97773.48
2023-03-06T17:47:39.053Z,97770.89
2023-03-06T17:50:41.886Z,97766.56
2023-03-06T17:53:44.570Z,97765.70
2023-03-06T17:56:47.349Z,97768.06
2023-03-06T17:59:50.137Z,97771.43
2023-03-06T18:02:53.291Z,97775.10
2023-03-06T18:06:01.089Z,97776.79
2023-03-06T18:09:04.937Z,97774.61
2023-03-06T18:12:07.980Z,97776.16
2023-03-06T18:15:11.198Z,97778.47
2023-03-06T18:18:14.745Z,97780.89
2023-03-06T18:21:17.736Z,97783.65
2023-03-06T18:24:20.744Z,97784.95
2023-03-06T18:27:23.479Z,97783.36
2023-03-06T18:30:26.436Z,97783.05
2023-03-06T18:33:29.047Z,97781.41
2023-03-06T18:36:32.642Z,97781.31
2023-03-06T18:39:38.068Z,97777.86
2023-03-06T18:42:40.833Z,97781.91
2023-03-06T18:45:52.835Z,97783.92
2023-03-06T18:48:55.692Z,97780.69
2023-03-06T18:51:58.926Z,97777.05
2023-03-06T18:55:01.919Z,97774.30
2023-03-06T18:58:04.770Z,97777.31
2023-03-06T19:01:10.045Z,97773.52
2023-03-06T19:04:13.776Z,97772.69
2023-03-06T19:07:17.173Z,97773.49
2023-03-06T19:10:20.052Z,97772.95
2023-03-06T19:13:22.915Z,97775.23
2023-03-06T19:16:27.396Z,97773.71
2023-03-06T19:19:30.186Z,97771.61
2023-03-06T19:22:34.560Z,97773.02
2023-03-06T19:25:37.392Z,97761.29
2023-03-06T19:28:40.880Z,97761.52
2023-03-06T19:31:45.971Z,97764.98
2023-03-06T19:34:49.518Z,97765.27
2023-03-06T19:37:52.687Z,97774.29
2023-03-06T19:40:55.469Z,97769.79
2023-03-06T19:43:59.241Z,97769.95
2023-03-06T19:47:01.888Z,97769.93
2023-03-06T19:50:04.947Z,97772.64
2023-03-06T19:53:07.945Z,97767.72
2023-03-06T19:56:15.908Z,97768.85
2023-03-06T19:59:18.972Z,97771.45
2023-03-06T20:02:27.406Z,97771.58
2023-03-06T20:05:30.152Z,97772.98
2023-03-06T20:08:32.944Z,97769.56
2023-03-06T20:11:35.811Z,97761.88
2023-03-06T20:14:38.503Z,97766.15
2023-03-06T20:17:41.500Z,97771.67
2023-03-06T20:20:44.481Z,97771.85
2023-03-06T20:23:47.722Z,97772.07
2023-03-06T20:26:51.741Z,97772.44
2023-03-06T20:29:54.605Z,97772.13
2023-03-06T20:32:57.377Z,97771.59
2023-03-06T20:36:00.288Z,97772.42
2023-03-06T20:39:09.182Z,97775.04
2023-03-06T20:42:11.874Z,97775.39
2023-03-06T20:45:15.625Z,97776.65
2023-03-06T20:48:18.274Z,97775.38
2023-03-06T20:51:22.114Z,97772.84
2023-03-06T20:54:24.890Z,97774.59
2023-03-06T20:57:28.188Z,97775.37
2023-03-06T21:00:31.059Z,97773.91
2023-03-06T21:03:34.051Z,97779.91
2023-03-06T21:06:37.435Z,97776.02
2023-03-06T21:09:40.417Z,97777.71
2023-03-06T21:12:43.058Z,97775.82
2023-03-06T21:15:47.567Z,97777.88
2023-03-06T21:18:50.661Z,97779.11
2023-03-06T21:21:53.413Z,97783.42
2023-03-06T21:24:56.126Z,97787.69
2023-03-06T21:28:00.267Z,97788.44
2023-03-06T21:31:06.649Z,97782.61
2023-03-06T21:34:11.472Z,97781.10
2023-03-06T21:37:14.302Z,97781.53
2023-03-06T21:40:17.179Z,97782.46
2023-03-06T21:43:19.969Z,97790.11
2023-03-06T21:46:22.971Z,97788.27
2023-03-06T21:49:26.272Z,97792.96
2023-03-06T21:52:29.309Z,97796.83
2023-03-06T21:55:32.075Z,97799.73
2023-03-06T21:58:34.877Z,97800.02
2023-03-06T22:01:41.881Z,97796.78
2023-03-06T22:04:44.680Z,97796.34
2023-03-06T22:07:47.413Z,97801.23
2023-03-06T22:10:50.254Z,97801.34
2023-03-06T22:13:55.882Z,97798.27
2023-03-06T22:16:58.556Z,97801.83
2023-03-06T22:20:01.473Z,97800.10
2023-03-06T22:23:04.225Z,97801.30
2023-03-06T22:26:14.455Z,97805.34
2023-03-06T22:29:17.138Z,97802.11
2023-03-06T22:32:20.149Z,97807.98
2023-03-06T22:35:23.085Z,97810.27
2023-03-06T22:38:25.739Z,97811.98
2023-03-06T22:41:28.753Z,97814.19
2023-03-06T22:44:31.380Z,97819.48
2023-03-06T22:47:36.072Z,97820.61
2023-03-06T22:50:38.730Z,97819.91
2023-03-06T22:53:41.889Z,97818.06
2023-03-06T22:56:44.666Z,97818.44
2023-03-06T22:59:47.325Z,97818.91
2023-03-06T23:02:49.999Z,97825.80
2023-03-06T23:05:52.615Z,97821.44
2023-03-06T23:08:57.020Z,97827.83
2023-03-06T23:11:59.592Z,97825.63
2023-03-06T23:15:21.189Z,97826.65
2023-03-06T23:18:42.494Z,97829.72
2023-03-06T23:22:03.994Z,97826.96
2023-03-06T23:25:25.423Z,97826.00
2023-03-06T23:28:28.587Z,97826.46
2023-03-06T23:31:31.774Z,97829.17
2023-03-06T23:34:34.545Z,97828.27
2023-03-06T23:37:37.326Z,97838.83
2023-03-06T23:40:40.320Z,97836.83
2023-03-06T23:43:43.203Z,97836.20
2023-03-06T23:46:45.869Z,97836.50
2023-03-06T23:49:48.481Z,97836.59
2023-03-06T23:52:51.996Z,97839.46
2023-03-06T23:55:56.934Z,97833.11
2023-03-06T23:58:59.718Z,97835.25
